Caletta — ICNZ — position and weather

sailwx.info

Track history (hours):
 
Tides and Currents Weather Stations Pressure Air Temp Water Temp Dewpoint Dewpoint Depression Visibility Wind Speed Wind Dir Waves Ship Positions

Caletta

Last reported at 2014-Oct-21 17:15 UTC. Time now 2014-Oct-24 09:41 UTC.
Position S 32°41' W 071°44'.

Length 183 m; draft 7.6 m.

Type: Tanker. MMSI: 247296300.

Date/timePositionNaut miles runAvg speedWind from/ knotsBaromVisibWave heightAir tempDewpointWater temp
2014-Oct-21 17:15S 32°41' W 071°44'710.6
2014-Oct-21 16:33S 32°44' W 071°35'5 0.9
2014-Oct-21 11:11S 32°46' W 071°30'0 0.0
2014-Oct-21 08:07S 32°46' W 071°30'0 0.0
2014-Oct-20 12:31S 32°46' W 071°30'1 1.1
2014-Oct-20 11:28S 32°45' W 071°30'0 0.0
2014-Oct-19 23:19S 32°45' W 071°30'0 0.1
2014-Oct-19 22:25S 32°45' W 071°30'0 0.0
2014-Oct-19 21:22S 32°45' W 071°30'0 0.0
2014-Oct-19 20:31S 32°45' W 071°30'0 0.0
2014-Oct-19 19:31S 32°45' W 071°30'0 0.0
2014-Oct-19 18:19S 32°45' W 071°30'0 0.0
2014-Oct-19 17:31S 32°45' W 071°30'0 0.0
2014-Oct-19 16:31S 32°45' W 071°30'0 0.0
2014-Oct-19 15:31S 32°45' W 071°30'0 0.0
2014-Oct-19 14:16S 32°45' W 071°30'0 0.2
2014-Oct-19 13:31S 32°45' W 071°31'2 2.2
2014-Oct-19 12:33S 32°45' W 071°33'4 3.7
2014-Oct-19 11:33S 32°45' W 071°38'8 8.2
2014-Oct-19 10:33S 32°42' W 071°46'  
Track history (hours):
 
Tides and Currents Weather Stations Pressure Air Temp Water Temp Dewpoint Dewpoint Depression Visibility Wind Speed Wind Dir Waves Ship Positions

Caletta

Last reported at 2014-Oct-21 17:15 UTC. Time now 2014-Oct-24 09:41 UTC.
Position S 32°41' W 071°44'.

Length 183 m; draft 7.6 m.

Type: Tanker. MMSI: 247296300.

Date/timePositionNaut miles runAvg speedWind from/ knotsBaromVisibWave heightAir tempDewpointWater temp
2014-Oct-21 17:15S 32°41' W 071°44'710.6
2014-Oct-21 16:33S 32°44' W 071°35'5 0.9
2014-Oct-21 11:11S 32°46' W 071°30'0 0.0
2014-Oct-21 08:07S 32°46' W 071°30'0 0.0
2014-Oct-20 12:31S 32°46' W 071°30'1 1.1
2014-Oct-20 11:28S 32°45' W 071°30'0 0.0
2014-Oct-19 23:19S 32°45' W 071°30'0 0.1
2014-Oct-19 22:25S 32°45' W 071°30'0 0.0
2014-Oct-19 21:22S 32°45' W 071°30'0 0.0
2014-Oct-19 20:31S 32°45' W 071°30'0 0.0
2014-Oct-19 19:31S 32°45' W 071°30'0 0.0
2014-Oct-19 18:19S 32°45' W 071°30'0 0.0
2014-Oct-19 17:31S 32°45' W 071°30'0 0.0
2014-Oct-19 16:31S 32°45' W 071°30'0 0.0
2014-Oct-19 15:31S 32°45' W 071°30'0 0.0
2014-Oct-19 14:16S 32°45' W 071°30'0 0.2
2014-Oct-19 13:31S 32°45' W 071°31'2 2.2
2014-Oct-19 12:33S 32°45' W 071°33'4 3.7
2014-Oct-19 11:33S 32°45' W 071°38'8 8.2
2014-Oct-19 10:33S 32°42' W 071°46'  

Dump ship's entire track history